createdAt,value
2023-05-22T00:02:12.067Z,99144.28
2023-05-22T00:04:40.334Z,99141.94
2023-05-22T00:07:08.552Z,99144.63
2023-05-22T00:09:36.726Z,99147.34
2023-05-22T00:12:05.144Z,99140.34
2023-05-22T00:14:33.171Z,99139.19
2023-05-22T00:17:01.346Z,99142.31
2023-05-22T00:19:31.090Z,99134.47
2023-05-22T00:21:59.493Z,99140.31
2023-05-22T00:24:27.574Z,99143.84
2023-05-22T00:26:55.869Z,99140.38
2023-05-22T00:29:23.944Z,99139.19
2023-05-22T00:31:52.124Z,99139.19
2023-05-22T00:34:20.639Z,99142.69
2023-05-22T00:36:50.076Z,99145.03
2023-05-22T00:39:18.298Z,99143.09
2023-05-22T00:41:46.493Z,99148.97
2023-05-22T00:44:14.758Z,99150.09
2023-05-22T00:46:43.289Z,99150.50
2023-05-22T00:49:11.460Z,99156.75
2023-05-22T00:51:39.713Z,99150.91
2023-05-22T00:54:10.572Z,99150.13
2023-05-22T00:56:38.841Z,99150.91
2023-05-22T00:59:07.002Z,99147.00
2023-05-22T01:01:37.849Z,99146.63
2023-05-22T01:04:08.305Z,99143.09
2023-05-22T01:06:36.479Z,99147.00
2023-05-22T01:09:05.162Z,99152.47
2023-05-22T01:11:44.370Z,99152.84
2023-05-22T01:14:22.307Z,99147.00
2023-05-22T01:16:59.846Z,99149.72
2023-05-22T01:20:01.452Z,99144.66
2023-05-22T01:22:47.675Z,99143.09
2023-05-22T01:25:33.795Z,99144.63
2023-05-22T01:28:21.706Z,99140.75
2023-05-22T01:31:01.231Z,99145.44
2023-05-22T01:33:37.405Z,99146.22
2023-05-22T01:36:10.805Z,99147.03
2023-05-22T01:38:39.485Z,99147.41
2023-05-22T01:41:07.737Z,99140.75
2023-05-22T01:43:36.444Z,99140.00
2023-05-22T01:46:06.545Z,99133.75
2023-05-22T01:48:34.836Z,99136.88
2023-05-22T01:51:08.925Z,99138.47
2023-05-22T01:53:45.277Z,99136.50
2023-05-22T01:56:18.019Z,99140.81
2023-05-22T01:58:52.655Z,99141.19
2023-05-22T02:01:27.659Z,99143.16
2023-05-22T02:03:58.260Z,99136.91
2023-05-22T02:06:30.022Z,99131.44
2023-05-22T02:08:58.834Z,99135.34
2023-05-22T02:11:29.466Z,99136.91
2023-05-22T02:13:58.687Z,99141.97
2023-05-22T02:16:28.919Z,99148.59
2023-05-22T02:19:06.078Z,99148.22
2023-05-22T02:21:35.462Z,99148.63
2023-05-22T02:24:04.944Z,99143.94
2023-05-22T02:26:33.288Z,99138.09
2023-05-22T02:29:01.426Z,99147.06
2023-05-22T02:31:31.290Z,99144.72
2023-05-22T02:33:59.468Z,99147.06
2023-05-22T02:36:27.557Z,99135.34
2023-05-22T02:38:56.566Z,99148.63
2023-05-22T02:41:24.646Z,99147.84
2023-05-22T02:43:52.800Z,99153.28
2023-05-22T02:46:21.039Z,99150.59
2023-05-22T02:48:50.722Z,99143.56
2023-05-22T02:51:18.856Z,99148.63
2023-05-22T02:53:47.311Z,99139.25
2023-05-22T02:56:16.458Z,99135.34
2023-05-22T02:58:44.588Z,99140.00
2023-05-22T03:01:13.225Z,99142.38
2023-05-22T03:03:41.630Z,99147.06
2023-05-22T03:06:11.178Z,99145.88
2023-05-22T03:08:43.582Z,99143.53
2023-05-22T03:11:11.936Z,99141.97
2023-05-22T03:13:40.871Z,99145.06
2023-05-22T03:16:09.217Z,99144.31
2023-05-22T03:18:37.558Z,99147.06
2023-05-22T03:21:06.694Z,99141.59
2023-05-22T03:23:36.243Z,99149.00
2023-05-22T03:26:04.553Z,99150.56
2023-05-22T03:28:32.781Z,99142.34
2023-05-22T03:31:01.272Z,99138.44
2023-05-22T03:33:29.544Z,99150.16
2023-05-22T03:35:57.676Z,99143.50
2023-05-22T03:38:26.408Z,99142.34
2023-05-22T03:40:55.949Z,99145.06
2023-05-22T03:43:24.073Z,99145.84
2023-05-22T03:45:52.285Z,99145.81
2023-05-22T03:48:20.611Z,99146.19
2023-05-22T03:50:48.912Z,99155.13
2023-05-22T03:53:17.223Z,99155.06
2023-05-22T03:55:45.393Z,99147.31
2023-05-22T03:58:15.132Z,99154.72
2023-05-22T04:00:43.862Z,99152.44
2023-05-22T04:03:13.316Z,99157.47
2023-05-22T04:05:41.552Z,99165.69
2023-05-22T04:08:09.566Z,99157.06
2023-05-22T04:10:39.090Z,99160.19
2023-05-22T04:13:07.582Z,99152.38
2023-05-22T04:15:37.032Z,99155.50
2023-05-22T04:18:05.365Z,99159.38
2023-05-22T04:20:33.512Z,99158.09
2023-05-22T04:23:02.525Z,99147.56
2023-05-22T04:25:31.743Z,99159.28
2023-05-22T04:28:03.220Z,99156.16
2023-05-22T04:30:34.231Z,99157.66
2023-05-22T04:33:05.736Z,99157.56
2023-05-22T04:35:34.365Z,99160.56
2023-05-22T04:38:03.820Z,99161.03
2023-05-22T04:40:33.791Z,99167.28
2023-05-22T04:43:03.687Z,99173.47
2023-05-22T04:45:35.652Z,99159.03
2023-05-22T04:48:05.864Z,99172.69
2023-05-22T04:50:34.464Z,99167.97
2023-05-22T04:53:04.503Z,99166.41
2023-05-22T04:55:34.213Z,99168.72
2023-05-22T04:58:02.982Z,99168.81
2023-05-22T05:00:31.338Z,99171.47
2023-05-22T05:03:00.536Z,99175.97
2023-05-22T05:05:30.620Z,99174.63
2023-05-22T05:07:59.375Z,99173.34
2023-05-22T05:10:28.029Z,99184.66
2023-05-22T05:12:56.846Z,99180.06
2023-05-22T05:15:25.272Z,99172.72
2023-05-22T05:17:54.218Z,99176.22
2023-05-22T05:20:23.332Z,99177.47
2023-05-22T05:22:53.544Z,99175.03
2023-05-22T05:25:22.041Z,99178.16
2023-05-22T05:27:50.874Z,99180.06
2023-05-22T05:30:20.648Z,99180.78
2023-05-22T05:32:49.138Z,99177.47
2023-05-22T05:35:17.466Z,99182.47
2023-05-22T05:37:45.899Z,99190.13
2023-05-22T05:40:16.346Z,99188.53
2023-05-22T05:42:46.516Z,99190.94
2023-05-22T05:45:16.654Z,99191.72
2023-05-22T05:47:46.074Z,99202.72
2023-05-22T05:50:15.764Z,99207.53
2023-05-22T05:52:44.078Z,99214.38
2023-05-22T05:55:12.296Z,99207.84
2023-05-22T05:57:42.204Z,99206.56
2023-05-22T06:00:12.166Z,99210.41
2023-05-22T06:02:40.678Z,99205.66
2023-05-22T06:05:10.108Z,99205.50
2023-05-22T06:07:39.864Z,99211.53
2023-05-22T06:10:09.554Z,99218.81
2023-05-22T06:12:37.861Z,99219.41
2023-05-22T06:15:08.726Z,99222.44
2023-05-22T06:17:37.355Z,99219.88
2023-05-22T06:20:07.175Z,99228.19
2023-05-22T06:22:37.118Z,99230.88
2023-05-22T06:25:06.531Z,99233.09
2023-05-22T06:27:34.929Z,99230.69
2023-05-22T06:30:04.724Z,99231.03
2023-05-22T06:32:35.346Z,99232.59
2023-05-22T06:35:04.220Z,99232.88
2023-05-22T06:37:35.679Z,99231.69
2023-05-22T06:40:04.462Z,99230.91
2023-05-22T06:42:32.828Z,99234.88
2023-05-22T06:45:01.280Z,99241.03
2023-05-22T06:47:29.685Z,99238.44
2023-05-22T06:49:59.861Z,99239.84
2023-05-22T06:52:28.108Z,99237.66
2023-05-22T06:55:04.330Z,99240.44
2023-05-22T06:57:33.417Z,99237.84
2023-05-22T07:00:02.239Z,99235.78
2023-05-22T07:02:30.756Z,99235.78
2023-05-22T07:05:00.601Z,99238.41
2023-05-22T07:07:28.759Z,99243.28
2023-05-22T07:09:56.991Z,99234.66
2023-05-22T07:12:26.319Z,99233.69
2023-05-22T07:14:54.834Z,99237.50
2023-05-22T07:17:23.238Z,99246.66
2023-05-22T07:19:51.591Z,99238.00
2023-05-22T07:22:21.652Z,99237.03
2023-05-22T07:24:50.774Z,99242.94
2023-05-22T07:27:18.886Z,99238.97
2023-05-22T07:29:47.102Z,99246.78
2023-05-22T07:32:15.520Z,99247.56
2023-05-22T07:34:44.463Z,99245.06
2023-05-22T07:37:14.290Z,99244.19
2023-05-22T07:39:43.972Z,99237.34
2023-05-22T07:42:14.796Z,99249.09
2023-05-22T07:44:43.199Z,99241.81
2023-05-22T07:47:11.596Z,99243.34
2023-05-22T07:49:40.000Z,99241.97
2023-05-22T07:52:08.668Z,99246.34
2023-05-22T07:54:37.107Z,99237.47
2023-05-22T07:57:08.282Z,99238.56
2023-05-22T07:59:37.831Z,99241.47
2023-05-22T08:02:06.387Z,99241.34
2023-05-22T08:04:35.650Z,99241.28
2023-05-22T08:07:04.324Z,99242.13
2023-05-22T08:09:32.943Z,99248.56
2023-05-22T08:12:01.757Z,99246.78
2023-05-22T08:14:31.822Z,99250.97
2023-05-22T08:17:00.555Z,99257.31
2023-05-22T08:19:29.212Z,99240.59
2023-05-22T08:21:58.608Z,99237.28
2023-05-22T08:24:28.898Z,99239.34
2023-05-22T08:26:58.276Z,99243.72
2023-05-22T08:29:26.782Z,99245.03
2023-05-22T08:31:58.406Z,99239.41
2023-05-22T08:34:28.499Z,99242.81
2023-05-22T08:36:56.794Z,99243.34
2023-05-22T08:39:28.480Z,99242.13
2023-05-22T08:41:57.514Z,99232.00
2023-05-22T08:44:26.293Z,99233.16
2023-05-22T08:46:59.954Z,99237.13
2023-05-22T08:49:28.753Z,99229.25
2023-05-22T08:52:07.074Z,99238.00
2023-05-22T08:54:41.159Z,99238.31
2023-05-22T08:57:10.240Z,99234.78
2023-05-22T08:59:40.360Z,99226.34
2023-05-22T09:02:11.573Z,99225.75
2023-05-22T09:04:42.137Z,99215.56
2023-05-22T09:07:10.927Z,99225.00
2023-05-22T09:09:40.052Z,99232.13
2023-05-22T09:12:10.531Z,99227.13
2023-05-22T09:14:42.494Z,99231.19
2023-05-22T09:17:16.702Z,99220.59
2023-05-22T09:19:47.502Z,99224.31
2023-05-22T09:22:16.848Z,99227.97
2023-05-22T09:24:47.293Z,99227.47
2023-05-22T09:27:15.583Z,99220.25
2023-05-22T09:29:50.753Z,99215.97
2023-05-22T09:32:21.116Z,99214.84
2023-05-22T09:34:49.931Z,99213.13
2023-05-22T09:37:19.258Z,99223.19
2023-05-22T09:39:51.605Z,99215.84
2023-05-22T09:42:19.943Z,99220.38
2023-05-22T09:44:50.315Z,99214.44
2023-05-22T09:47:20.020Z,99210.13
2023-05-22T09:49:48.913Z,99211.22
2023-05-22T09:52:19.359Z,99211.69
2023-05-22T09:54:55.051Z,99211.28
2023-05-22T09:57:25.056Z,99206.03
2023-05-22T09:59:58.422Z,99206.53
2023-05-22T10:02:29.687Z,99206.66
2023-05-22T10:04:59.241Z,99198.13
2023-05-22T10:07:34.326Z,99199.25
2023-05-22T10:10:06.598Z,99200.53
2023-05-22T10:12:38.673Z,99199.94
2023-05-22T10:15:09.713Z,99197.94
2023-05-22T10:17:41.575Z,99193.16
2023-05-22T10:20:11.233Z,99198.72
2023-05-22T10:22:40.844Z,99193.19
2023-05-22T10:25:11.067Z,99177.75
2023-05-22T10:27:40.733Z,99187.78
2023-05-22T10:30:20.368Z,99188.41
2023-05-22T10:32:57.631Z,99189.47
2023-05-22T10:35:33.807Z,99196.72
2023-05-22T10:38:15.775Z,99186.56
2023-05-22T10:40:48.487Z,99191.31
2023-05-22T10:43:17.133Z,99179.91
2023-05-22T10:45:48.455Z,99182.97
2023-05-22T10:48:23.043Z,99182.31
2023-05-22T10:50:55.078Z,99178.03
2023-05-22T10:53:28.095Z,99171.72
2023-05-22T10:55:57.539Z,99161.41
2023-05-22T10:58:29.825Z,99160.97
2023-05-22T11:01:11.139Z,99161.09
2023-05-22T11:03:58.497Z,99153.84
2023-05-22T11:06:38.798Z,99148.47
2023-05-22T11:09:21.984Z,99146.44
2023-05-22T11:12:20.989Z,99124.03
2023-05-22T11:14:57.521Z,99143.94
2023-05-22T11:17:29.206Z,99148.88
2023-05-22T11:20:05.577Z,99138.22
2023-05-22T11:22:38.664Z,99142.09
2023-05-22T11:25:12.353Z,99136.66
2023-05-22T11:27:42.768Z,99146.25
2023-05-22T11:30:12.767Z,99140.13
2023-05-22T11:32:44.672Z,99145.97
2023-05-22T11:35:17.679Z,99144.34
2023-05-22T11:37:46.757Z,99147.53
2023-05-22T11:40:17.151Z,99154.34
2023-05-22T11:42:45.834Z,99165.31
2023-05-22T11:45:16.221Z,99178.97
2023-05-22T11:47:45.206Z,99193.03
2023-05-22T11:50:17.990Z,99191.00
2023-05-22T11:52:56.449Z,99202.16
2023-05-22T11:55:25.601Z,99200.25
2023-05-22T11:57:57.539Z,99187.06
2023-05-22T12:00:26.727Z,99200.19
2023-05-22T12:02:56.307Z,99195.69
2023-05-22T12:05:24.711Z,99201.13
2023-05-22T12:07:54.874Z,99187.34
2023-05-22T12:10:23.797Z,99174.50
2023-05-22T12:12:52.782Z,99174.84
2023-05-22T12:15:21.523Z,99181.47
2023-05-22T12:17:49.993Z,99180.44
2023-05-22T12:20:20.798Z,99181.78
2023-05-22T12:22:51.678Z,99177.38
2023-05-22T12:25:24.587Z,99172.59
2023-05-22T12:27:52.962Z,99174.06
2023-05-22T12:30:23.853Z,99169.03
2023-05-22T12:32:53.310Z,99164.84
2023-05-22T12:35:21.767Z,99161.94
2023-05-22T12:37:50.602Z,99159.13
2023-05-22T12:40:20.621Z,99156.94
2023-05-22T12:42:52.420Z,99155.44
2023-05-22T12:45:21.214Z,99156.28
2023-05-22T12:47:52.572Z,99150.13
2023-05-22T12:50:38.991Z,99150.63
2023-05-22T12:53:07.437Z,99150.84
2023-05-22T12:55:38.081Z,99156.75
2023-05-22T12:58:06.399Z,99149.72
2023-05-22T13:00:35.415Z,99156.28
2023-05-22T13:03:04.458Z,99150.47
2023-05-22T13:05:33.152Z,99147.69
2023-05-22T13:08:01.713Z,99150.28
2023-05-22T13:10:30.740Z,99145.34
2023-05-22T13:13:00.690Z,99149.34
2023-05-22T13:15:36.722Z,99143.91
2023-05-22T13:18:05.474Z,99159.53
2023-05-22T13:20:36.159Z,99153.41
2023-05-22T13:23:04.627Z,99139.00
2023-05-22T13:25:33.198Z,99151.50
2023-05-22T13:28:03.069Z,99153.06
2023-05-22T13:30:32.307Z,99147.66
2023-05-22T13:33:00.847Z,99141.09
2023-05-22T13:35:29.221Z,99142.13
2023-05-22T13:37:57.638Z,99140.47
2023-05-22T13:40:28.590Z,99151.81
2023-05-22T13:42:57.050Z,99151.03
2023-05-22T13:45:27.890Z,99143.50
2023-05-22T13:47:58.982Z,99148.16
2023-05-22T13:50:30.800Z,99146.75
2023-05-22T13:52:59.537Z,99142.28
2023-05-22T13:55:31.118Z,99139.47
2023-05-22T13:57:59.675Z,99128.34
2023-05-22T14:00:29.602Z,99130.59
2023-05-22T14:02:58.212Z,99133.34
2023-05-22T14:05:32.303Z,99126.47
2023-05-22T14:08:00.755Z,99123.44
2023-05-22T14:10:29.361Z,99131.56
2023-05-22T14:12:57.611Z,99127.69
2023-05-22T14:15:26.866Z,99126.13
2023-05-22T14:17:56.679Z,99118.00
2023-05-22T14:20:25.330Z,99125.53
2023-05-22T14:22:58.252Z,99125.38
2023-05-22T14:25:29.417Z,99116.22
2023-05-22T14:27:58.771Z,99111.41
2023-05-22T14:30:27.355Z,99110.44
2023-05-22T14:32:57.120Z,99106.69
2023-05-22T14:35:25.683Z,99116.03
2023-05-22T14:37:57.629Z,99093.38
2023-05-22T14:40:25.875Z,99115.28
2023-05-22T14:42:54.605Z,99110.97
2023-05-22T14:45:22.916Z,99103.50
2023-05-22T14:47:51.229Z,99110.44
2023-05-22T14:50:21.907Z,99110.22
2023-05-22T14:52:50.826Z,99111.28
2023-05-22T14:55:19.562Z,99114.94
2023-05-22T14:57:47.714Z,99117.06
2023-05-22T15:00:16.585Z,99116.56
2023-05-22T15:02:44.825Z,99114.81
2023-05-22T15:05:13.221Z,99116.16
2023-05-22T15:07:45.525Z,99112.28
2023-05-22T15:10:14.913Z,99120.53
2023-05-22T15:12:42.997Z,99110.16
2023-05-22T15:15:12.481Z,99114.81
2023-05-22T15:17:42.582Z,99111.03
2023-05-22T15:20:12.150Z,99109.44
2023-05-22T15:22:40.645Z,99121.28
2023-05-22T15:25:15.084Z,99125.06
2023-05-22T15:27:43.626Z,99126.47
2023-05-22T15:30:17.028Z,99133.06
2023-05-22T15:32:45.440Z,99138.19
2023-05-22T15:35:15.052Z,99140.53
2023-05-22T15:37:43.341Z,99146.94
2023-05-22T15:40:17.413Z,99135.94
2023-05-22T15:42:45.645Z,99140.06
2023-05-22T15:45:14.143Z,99141.25
2023-05-22T15:47:42.805Z,99155.97
2023-05-22T15:50:11.576Z,99173.00
2023-05-22T15:52:39.780Z,99178.47
2023-05-22T15:55:08.779Z,99169.56
2023-05-22T15:57:38.732Z,99163.34
2023-05-22T16:00:08.665Z,99164.09
2023-05-22T16:02:37.141Z,99163.53
2023-05-22T16:05:06.281Z,99175.09
2023-05-22T16:07:34.746Z,99175.25
2023-05-22T16:10:04.119Z,99164.66
2023-05-22T16:12:32.789Z,99160.00
2023-05-22T16:15:04.518Z,99159.31
2023-05-22T16:17:34.988Z,99155.13
2023-05-22T16:20:05.154Z,99171.41
2023-05-22T16:22:47.368Z,99166.78
2023-05-22T16:25:19.268Z,99167.44
2023-05-22T16:27:47.821Z,99164.53
2023-05-22T16:30:18.247Z,99164.44
2023-05-22T16:32:47.210Z,99165.78
2023-05-22T16:35:16.031Z,99165.66
2023-05-22T16:37:44.283Z,99169.06
2023-05-22T16:40:14.802Z,99175.97
2023-05-22T16:42:43.117Z,99177.16
2023-05-22T16:45:11.479Z,99188.59
2023-05-22T16:47:41.107Z,99195.81
2023-05-22T16:50:10.285Z,99196.72
2023-05-22T16:52:38.389Z,99203.69
2023-05-22T16:55:07.483Z,99208.78
2023-05-22T16:57:35.663Z,99219.94
2023-05-22T17:00:05.166Z,99215.72
2023-05-22T17:02:33.538Z,99216.22
2023-05-22T17:05:03.278Z,99216.34
2023-05-22T17:07:31.826Z,99210.56
2023-05-22T17:10:00.309Z,99209.47
2023-05-22T17:12:28.928Z,99209.63
2023-05-22T17:14:57.097Z,99218.50
2023-05-22T17:17:25.258Z,99210.84
2023-05-22T17:19:54.400Z,99206.69
2023-05-22T17:22:24.040Z,99212.22
2023-05-22T17:24:52.783Z,99219.69
2023-05-22T17:27:34.343Z,99225.88
2023-05-22T17:30:03.617Z,99227.88
2023-05-22T17:32:31.817Z,99233.34
2023-05-22T17:35:00.170Z,99235.72
2023-05-22T17:37:29.674Z,99263.97
2023-05-22T17:39:57.903Z,99266.94
2023-05-22T17:42:25.950Z,99276.41
2023-05-22T17:44:54.002Z,99273.00
2023-05-22T17:47:22.406Z,99264.19
2023-05-22T17:49:50.689Z,99251.41
2023-05-22T17:52:18.868Z,99258.47
2023-05-22T17:54:50.368Z,99273.19
2023-05-22T17:57:18.592Z,99277.13
2023-05-22T17:59:46.806Z,99275.59
2023-05-22T18:02:15.050Z,99266.25
2023-05-22T18:04:43.085Z,99271.78
2023-05-22T18:07:11.204Z,99259.31
2023-05-22T18:09:39.305Z,99263.31
2023-05-22T18:12:15.156Z,99271.22
2023-05-22T18:14:52.595Z,99268.03
2023-05-22T18:17:21.027Z,99270.00
2023-05-22T18:19:49.278Z,99274.25
2023-05-22T18:22:17.406Z,99273.50
2023-05-22T18:24:45.949Z,99276.16
2023-05-22T18:27:15.414Z,99281.25
2023-05-22T18:29:43.463Z,99285.97
2023-05-22T18:32:13.657Z,99285.22
2023-05-22T18:34:42.165Z,99288.75
2023-05-22T18:37:10.995Z,99286.06
2023-05-22T18:39:39.083Z,99288.84
2023-05-22T18:42:07.718Z,99288.50
2023-05-22T18:44:37.739Z,99296.34
2023-05-22T18:47:06.325Z,99308.94
2023-05-22T18:49:34.726Z,99297.13
2023-05-22T18:52:02.982Z,99295.63
2023-05-22T18:54:31.067Z,99294.06
2023-05-22T18:56:59.254Z,99297.28
2023-05-22T18:59:27.518Z,99295.00
2023-05-22T19:01:57.041Z,99308.25
2023-05-22T19:04:26.011Z,99306.28
2023-05-22T19:06:54.406Z,99309.03
2023-05-22T19:09:22.689Z,99319.63
2023-05-22T19:11:51.307Z,99323.53
2023-05-22T19:14:19.504Z,99329.41
2023-05-22T19:16:47.943Z,99328.63
2023-05-22T19:19:17.890Z,99326.25
2023-05-22T19:21:46.168Z,99319.22
2023-05-22T19:24:14.782Z,99307.47
2023-05-22T19:26:58.358Z,99315.31
2023-05-22T19:29:26.564Z,99310.28
2023-05-22T19:31:55.233Z,99313.00
2023-05-22T19:34:24.948Z,99311.44
2023-05-22T19:36:57.614Z,99309.84
2023-05-22T19:39:26.263Z,99313.78
2023-05-22T19:41:54.921Z,99313.78
2023-05-22T19:44:23.554Z,99313.00
2023-05-22T19:46:51.941Z,99320.06
2023-05-22T19:49:21.073Z,99315.75
2023-05-22T19:54:37.215Z,99323.56
2023-05-22T19:57:05.727Z,99332.59
2023-05-22T19:59:36.540Z,99335.34
2023-05-22T20:02:06.491Z,99322.06
2023-05-22T20:04:34.899Z,99318.53
2023-05-22T20:07:05.814Z,99320.47
2023-05-22T20:09:34.101Z,99329.09
2023-05-22T20:12:02.282Z,99333.06
2023-05-22T20:14:30.707Z,99313.97
2023-05-22T20:16:59.646Z,99317.13
2023-05-22T20:19:32.724Z,99314.06
2023-05-22T20:22:02.188Z,99310.56
2023-05-22T20:24:32.261Z,99314.88
2023-05-22T20:27:01.224Z,99319.59
2023-05-22T20:29:29.547Z,99318.38
2023-05-22T20:31:57.960Z,99318.03
2023-05-22T20:34:28.597Z,99313.69
2023-05-22T20:36:58.561Z,99303.94
2023-05-22T20:39:30.554Z,99302.75
2023-05-22T20:42:03.034Z,99290.66
2023-05-22T20:44:31.871Z,99287.94
2023-05-22T20:47:00.945Z,99285.56
2023-05-22T20:49:30.082Z,99283.25
2023-05-22T20:52:00.086Z,99282.47
2023-05-22T20:54:28.900Z,99282.06
2023-05-22T20:56:57.480Z,99278.94
2023-05-22T20:59:28.676Z,99283.63
2023-05-22T21:01:58.017Z,99281.28
2023-05-22T21:04:27.070Z,99282.84
2023-05-22T21:06:55.281Z,99282.47
2023-05-22T21:09:23.470Z,99277.78
2023-05-22T21:11:51.611Z,99280.13
2023-05-22T21:14:19.746Z,99275.03
2023-05-22T21:16:49.294Z,99275.03
2023-05-22T21:19:17.510Z,99265.66
2023-05-22T21:21:45.976Z,99266.06
2023-05-22T21:24:14.365Z,99266.06
2023-05-22T21:26:42.524Z,99264.13
2023-05-22T21:29:10.718Z,99261.75
2023-05-22T21:31:38.858Z,99260.22
2023-05-22T21:34:09.829Z,99262.53
2023-05-22T21:36:38.122Z,99261.38
2023-05-22T21:39:06.469Z,99255.13
2023-05-22T21:41:34.863Z,99254.75
2023-05-22T21:44:08.828Z,99255.91
2023-05-22T21:46:37.359Z,99260.97
2023-05-22T21:49:06.278Z,99260.59
2023-05-22T21:51:36.067Z,99263.34
2023-05-22T21:54:04.510Z,99258.63
2023-05-22T21:56:32.768Z,99258.25
2023-05-22T21:59:00.993Z,99256.31
2023-05-22T22:01:29.176Z,99257.88
2023-05-22T22:03:57.370Z,99263.72
2023-05-22T22:06:25.755Z,99262.53
2023-05-22T22:08:56.032Z,99255.53
2023-05-22T22:11:24.330Z,99261.00
2023-05-22T22:13:52.807Z,99258.28
2023-05-22T22:16:22.378Z,99259.06
2023-05-22T22:18:51.248Z,99254.34
2023-05-22T22:21:19.930Z,99254.75
2023-05-22T22:23:48.295Z,99263.34
2023-05-22T22:26:18.004Z,99249.69
2023-05-22T22:28:46.376Z,99252.03
2023-05-22T22:31:14.573Z,99258.25
2023-05-22T22:33:42.929Z,99255.50
2023-05-22T22:36:11.188Z,99253.56
2023-05-22T22:38:39.451Z,99258.63
2023-05-22T22:41:09.828Z,99250.81
2023-05-22T22:43:39.512Z,99247.69
2023-05-22T22:46:08.830Z,99243.00
2023-05-22T22:48:37.183Z,99246.88
2023-05-22T22:51:06.216Z,99243.38
2023-05-22T22:53:34.525Z,99245.34
2023-05-22T22:56:03.015Z,99249.63
2023-05-22T22:58:31.547Z,99243.41
2023-05-22T23:01:01.716Z,99244.56
2023-05-22T23:03:29.902Z,99251.56
2023-05-22T23:05:58.391Z,99244.56
2023-05-22T23:08:27.232Z,99245.72
2023-05-22T23:10:55.504Z,99243.75
2023-05-22T23:13:23.963Z,99248.44
2023-05-22T23:15:52.256Z,99253.09
2023-05-22T23:18:22.411Z,99240.59
2023-05-22T23:20:51.390Z,99239.81
2023-05-22T23:23:20.205Z,99237.09
2023-05-22T23:25:48.337Z,99237.03
2023-05-22T23:28:16.971Z,99236.59
2023-05-22T23:30:45.085Z,99231.94
2023-05-22T23:33:14.194Z,99224.94
2023-05-22T23:35:43.745Z,99220.25
2023-05-22T23:38:11.885Z,99226.84
2023-05-22T23:40:40.134Z,99216.69
2023-05-22T23:43:08.332Z,99220.19
2023-05-22T23:45:36.488Z,99213.19
2023-05-22T23:48:05.545Z,99218.25
2023-05-22T23:50:34.011Z,99220.22
2023-05-22T23:53:04.085Z,99222.53
2023-05-22T23:55:32.376Z,99223.69
2023-05-22T23:58:00.683Z,99223.28
